createdAt,value
2023-01-02T00:00:37.414Z,20.70
2023-01-02T00:03:04.624Z,21.40
2023-01-02T00:05:31.621Z,21.50
2023-01-02T00:07:58.526Z,21.40
2023-01-02T00:10:25.397Z,21.50
2023-01-02T00:12:52.307Z,21.50
2023-01-02T00:15:19.622Z,21.50
2023-01-02T00:17:46.566Z,21.50
2023-01-02T00:20:13.495Z,21.40
2023-01-02T00:22:40.352Z,21.40
2023-01-02T00:25:07.843Z,22.50
2023-01-02T00:27:34.932Z,21.30
2023-01-02T00:30:01.857Z,21.30
2023-01-02T00:32:28.830Z,21.30
2023-01-02T00:34:55.720Z,21.40
2023-01-02T00:37:22.728Z,21.30
2023-01-02T00:39:49.715Z,21.30
2023-01-02T00:42:16.691Z,21.30
2023-01-02T00:44:43.578Z,21.30
2023-01-02T00:47:10.561Z,21.20
2023-01-02T00:49:37.485Z,21.20
2023-01-02T00:52:04.614Z,21.30
2023-01-02T00:54:31.473Z,21.30
2023-01-02T00:56:58.434Z,21.30
2023-01-02T00:59:25.424Z,21.30
2023-01-02T01:01:52.454Z,21.20
2023-01-02T01:04:19.515Z,21.30
2023-01-02T01:06:46.582Z,21.30
2023-01-02T01:09:13.646Z,21.20
2023-01-02T01:11:40.587Z,21.30
2023-01-02T01:14:07.417Z,21.20
2023-01-02T01:16:34.394Z,21.30
2023-01-02T01:19:01.346Z,21.20
2023-01-02T01:21:28.507Z,21.20
2023-01-02T01:23:55.941Z,21.30
2023-01-02T01:26:26.385Z,21.30
2023-01-02T01:28:54.651Z,21.20
2023-01-02T01:31:22.805Z,21.20
2023-01-02T01:33:50.304Z,21.30
2023-01-02T01:36:23.870Z,21.20
2023-01-02T01:38:51.391Z,21.20
2023-01-02T01:41:21.416Z,21.20
2023-01-02T01:43:56.209Z,21.20
2023-01-02T01:46:43.672Z,21.20
2023-01-02T01:49:10.578Z,21.20
2023-01-02T01:51:54.609Z,21.30
2023-01-02T01:54:26.645Z,22.20
2023-01-02T01:56:59.662Z,21.10
2023-01-02T01:59:27.313Z,21.10
2023-01-02T02:01:54.676Z,21.20
2023-01-02T02:04:24.949Z,21.10
2023-01-02T02:06:52.855Z,21.10
2023-01-02T02:09:37.071Z,21.10
2023-01-02T02:12:06.650Z,21.10
2023-01-02T02:14:34.519Z,21.10
2023-01-02T02:17:04.307Z,21.10
2023-01-02T02:19:49.539Z,21.10
2023-01-02T02:22:19.601Z,21.20
2023-01-02T02:25:25.240Z,21.20
2023-01-02T02:28:13.952Z,20.30
2023-01-02T02:30:52.103Z,20.40
2023-01-02T02:33:59.101Z,20.40
2023-01-02T02:36:42.992Z,20.00
2023-01-02T02:39:12.642Z,19.70
2023-01-02T02:41:47.124Z,19.70
2023-01-02T02:44:32.201Z,19.50
2023-01-02T02:47:35.492Z,19.30
2023-01-02T02:50:37.093Z,18.50
2023-01-02T02:53:21.085Z,18.80
2023-01-02T02:55:55.142Z,18.60
2023-01-02T02:58:24.603Z,18.60
2023-01-02T03:01:00.148Z,18.60
2023-01-02T03:03:28.039Z,18.60
2023-01-02T03:06:13.612Z,18.50
2023-01-02T03:08:52.537Z,18.50
2023-01-02T03:11:23.017Z,18.50
2023-01-02T03:14:13.024Z,18.60
2023-01-02T03:16:41.962Z,18.30
2023-01-02T03:19:20.399Z,18.50
2023-01-02T03:22:02.748Z,18.40
2023-01-02T03:24:31.325Z,18.50
2023-01-02T03:27:09.815Z,18.80
2023-01-02T03:29:44.214Z,18.60
2023-01-02T03:32:19.085Z,18.60
2023-01-02T03:34:48.405Z,18.80
2023-01-02T03:37:22.486Z,18.70
2023-01-02T03:39:54.335Z,18.70
2023-01-02T03:42:39.689Z,18.60
2023-01-02T03:45:33.082Z,18.30
2023-01-02T03:48:24.743Z,18.50
2023-01-02T03:50:54.869Z,18.50
2023-01-02T03:53:23.177Z,19.10
2023-01-02T03:56:22.376Z,19.00
2023-01-02T03:59:04.737Z,18.80
2023-01-02T04:01:39.856Z,18.80
2023-01-02T04:04:33.681Z,19.10
2023-01-02T04:07:04.597Z,18.90
2023-01-02T04:09:35.127Z,19.30
2023-01-02T04:12:10.919Z,19.40
2023-01-02T04:14:46.635Z,19.40
2023-01-02T04:17:16.088Z,19.50
2023-01-02T04:20:07.848Z,19.70
2023-01-02T04:22:45.913Z,19.40
2023-01-02T04:25:15.732Z,19.60
2023-01-02T04:28:05.489Z,19.70
2023-01-02T04:30:39.556Z,19.70
2023-01-02T04:33:09.391Z,19.80
2023-01-02T04:35:36.393Z,19.70
2023-01-02T04:38:11.541Z,19.80
2023-01-02T04:40:39.013Z,19.70
2023-01-02T04:43:13.980Z,20.00
2023-01-02T04:45:40.850Z,20.20
2023-01-02T04:48:07.744Z,20.30
2023-01-02T04:50:34.638Z,21.30
2023-01-02T04:53:01.674Z,20.40
2023-01-02T04:55:28.493Z,20.60
2023-01-02T04:57:57.557Z,21.90
2023-01-02T05:00:24.795Z,21.00
2023-01-02T05:02:51.970Z,21.00
2023-01-02T05:05:18.951Z,21.00
2023-01-02T05:07:45.915Z,21.00
2023-01-02T05:10:12.825Z,21.00
2023-01-02T05:12:40.239Z,21.00
2023-01-02T05:15:09.208Z,21.00
2023-01-02T05:17:37.988Z,20.60
2023-01-02T05:20:07.546Z,20.40
2023-01-02T05:22:52.922Z,20.50
2023-01-02T05:25:20.023Z,20.40
2023-01-02T05:27:47.005Z,20.30
2023-01-02T05:30:13.995Z,20.30
2023-01-02T05:32:41.394Z,20.30
2023-01-02T05:35:08.625Z,20.10
2023-01-02T05:37:35.582Z,20.00
2023-01-02T05:40:02.652Z,20.00
2023-01-02T05:42:29.561Z,19.80
2023-01-02T05:44:56.641Z,19.80
2023-01-02T05:47:23.787Z,19.80
2023-01-02T05:49:50.647Z,19.70
2023-01-02T05:52:17.656Z,19.80
2023-01-02T05:54:44.583Z,19.70
2023-01-02T05:57:12.646Z,19.70
2023-01-02T05:59:39.575Z,19.80
2023-01-02T06:02:06.683Z,20.00
2023-01-02T06:04:33.711Z,19.80
2023-01-02T06:07:03.765Z,20.00
2023-01-02T06:09:30.619Z,19.80
2023-01-02T06:11:57.497Z,19.90
2023-01-02T06:14:25.169Z,19.80
2023-01-02T06:16:52.368Z,19.80
2023-01-02T06:19:19.235Z,19.70
2023-01-02T06:21:46.148Z,19.70
2023-01-02T06:24:16.245Z,19.70
2023-01-02T06:26:43.193Z,19.60
2023-01-02T06:29:10.442Z,19.60
2023-01-02T06:31:39.876Z,19.50
2023-01-02T06:34:07.303Z,19.50
2023-01-02T06:36:41.475Z,19.50
2023-01-02T06:39:13.231Z,19.30
2023-01-02T06:41:40.064Z,19.20
2023-01-02T06:44:07.163Z,19.30
2023-01-02T06:46:36.140Z,19.10
2023-01-02T06:49:03.296Z,19.00
2023-01-02T06:51:30.341Z,19.00
2023-01-02T06:53:57.470Z,19.10
2023-01-02T06:56:25.525Z,18.90
2023-01-02T06:59:18.119Z,18.80
2023-01-02T07:01:52.327Z,18.40
2023-01-02T07:04:19.374Z,18.60
2023-01-02T07:06:46.297Z,18.60
2023-01-02T07:09:39.080Z,18.50
2023-01-02T07:12:10.202Z,18.00
2023-01-02T07:14:37.166Z,18.40
2023-01-02T07:17:07.328Z,18.40
2023-01-02T07:19:34.242Z,18.20
2023-01-02T07:22:01.182Z,18.10
2023-01-02T07:24:28.206Z,18.10
2023-01-02T07:26:55.188Z,18.00
2023-01-02T07:29:22.026Z,17.90
2023-01-02T07:31:48.905Z,17.80
2023-01-02T07:34:15.908Z,17.70
2023-01-02T07:36:53.160Z,17.60
2023-01-02T07:39:19.892Z,16.90
2023-01-02T07:41:47.033Z,17.50
2023-01-02T07:44:13.851Z,17.70
2023-01-02T07:46:40.813Z,17.60
2023-01-02T07:51:40.766Z,16.60
2023-01-02T07:54:07.662Z,18.50
2023-01-02T07:56:34.435Z,17.40
2023-01-02T07:59:01.203Z,17.60
2023-01-02T08:01:28.099Z,17.10
2023-01-02T08:03:54.998Z,17.00
2023-01-02T08:06:21.999Z,17.10
2023-01-02T08:08:49.025Z,17.10
2023-01-02T08:11:19.299Z,17.20
2023-01-02T08:13:46.351Z,17.10
2023-01-02T08:16:15.842Z,17.00
2023-01-02T08:18:43.388Z,16.90
2023-01-02T08:21:10.428Z,17.00
2023-01-02T08:23:37.747Z,17.90
2023-01-02T08:26:07.009Z,16.70
2023-01-02T08:28:34.944Z,16.60
2023-01-02T08:31:01.904Z,16.60
2023-01-02T08:33:28.801Z,16.50
2023-01-02T08:35:56.559Z,16.50
2023-01-02T08:38:23.458Z,16.80
2023-01-02T08:40:51.256Z,16.50
2023-01-02T08:43:18.008Z,16.40
2023-01-02T08:45:44.832Z,16.70
2023-01-02T08:48:20.854Z,16.40
2023-01-02T08:50:49.742Z,16.40
2023-01-02T08:53:16.736Z,16.30
2023-01-02T08:55:43.575Z,16.30
2023-01-02T08:58:11.126Z,16.30
2023-01-02T09:00:37.887Z,16.10
2023-01-02T09:03:04.874Z,16.10
2023-01-02T09:05:31.787Z,15.80
2023-01-02T09:07:59.053Z,15.60
2023-01-02T09:10:26.049Z,15.30
2023-01-02T09:12:52.878Z,15.30
2023-01-02T09:15:19.976Z,15.20
2023-01-02T09:17:46.873Z,14.40
2023-01-02T09:20:13.630Z,15.00
2023-01-02T09:22:40.671Z,15.10
2023-01-02T09:25:08.290Z,15.10
2023-01-02T09:27:35.007Z,15.00
2023-01-02T09:30:01.731Z,14.90
2023-01-02T09:32:28.587Z,14.80
2023-01-02T09:34:55.347Z,14.80
2023-01-02T09:37:22.215Z,14.80
2023-01-02T09:39:48.950Z,14.60
2023-01-02T09:42:17.679Z,14.50
2023-01-02T09:44:49.780Z,14.40
2023-01-02T09:47:21.264Z,14.60
2023-01-02T09:50:03.284Z,14.60
2023-01-02T09:52:44.029Z,14.40
2023-01-02T09:55:16.574Z,14.60
2023-01-02T09:58:00.569Z,14.40
2023-01-02T10:00:32.729Z,14.20
2023-01-02T10:03:23.600Z,13.50
2023-01-02T10:06:09.681Z,13.40
2023-01-02T10:08:49.779Z,13.40
2023-01-02T10:11:46.858Z,13.20
2023-01-02T10:14:37.473Z,12.80
2023-01-02T10:17:12.631Z,12.90
2023-01-02T10:19:55.222Z,13.20
2023-01-02T10:22:31.107Z,12.50
2023-01-02T10:25:19.713Z,12.40
2023-01-02T10:27:54.505Z,12.50
2023-01-02T10:30:26.648Z,12.50
2023-01-02T10:33:00.572Z,12.40
2023-01-02T10:35:57.975Z,12.30
2023-01-02T10:38:27.600Z,12.00
2023-01-02T10:40:54.404Z,12.40
2023-01-02T10:43:21.289Z,12.40
2023-01-02T10:45:48.073Z,12.50
2023-01-02T10:48:14.816Z,12.10
2023-01-02T10:50:50.237Z,12.00
2023-01-02T10:53:37.095Z,11.90
2023-01-02T10:56:16.095Z,11.20
2023-01-02T10:58:48.823Z,11.10
2023-01-02T11:01:21.465Z,10.60
2023-01-02T11:04:12.407Z,10.20
2023-01-02T11:07:00.209Z,10.70
2023-01-02T11:09:32.400Z,10.10
2023-01-02T11:12:12.256Z,10.00
2023-01-02T11:14:40.086Z,9.30
2023-01-02T11:17:20.184Z,8.90
2023-01-02T11:19:54.682Z,8.40
2023-01-02T11:22:31.966Z,7.50
2023-01-02T11:25:05.571Z,6.90
2023-01-02T11:27:35.594Z,6.00
2023-01-02T11:30:04.034Z,6.10
2023-01-02T11:32:38.682Z,5.40
2023-01-02T11:35:06.651Z,3.50
2023-01-02T11:37:34.303Z,1.70
2023-01-02T11:40:07.106Z,1.00
2023-01-02T11:43:01.843Z,1.00
2023-01-02T11:45:30.309Z,1.00
2023-01-02T11:48:13.456Z,1.00
2023-01-02T11:50:42.628Z,1.00
2023-01-02T11:53:18.963Z,1.00
2023-01-02T11:55:54.920Z,1.00
2023-01-02T11:58:30.837Z,1.00
2023-01-02T12:01:18.204Z,1.00
2023-01-02T12:03:45.339Z,1.00
2023-01-02T12:06:26.461Z,1.00
2023-01-02T12:09:12.591Z,1.00
2023-01-02T12:11:57.987Z,1.00
2023-01-02T12:14:40.015Z,1.00
2023-01-02T12:17:25.403Z,1.00
2023-01-02T12:20:06.061Z,1.00
2023-01-02T12:23:04.060Z,1.00
2023-01-02T12:25:43.126Z,1.00
2023-01-02T12:28:37.475Z,1.00
2023-01-02T12:31:13.060Z,1.00
2023-01-02T12:34:27.505Z,1.00
2023-01-02T12:36:54.177Z,1.00
2023-01-02T12:39:56.563Z,1.00
2023-01-02T12:42:37.791Z,1.00
2023-01-02T12:45:46.571Z,1.00
2023-01-02T12:48:36.183Z,1.00
2023-01-02T12:51:27.636Z,1.00
2023-01-02T12:54:19.917Z,1.00
2023-01-02T12:57:07.681Z,1.00
2023-01-02T13:00:01.645Z,1.00
2023-01-02T13:02:56.882Z,1.00
2023-01-02T13:05:53.724Z,1.00
2023-01-02T13:08:46.942Z,1.00
2023-01-02T13:11:21.118Z,1.00
2023-01-02T13:13:48.785Z,1.00
2023-01-02T13:16:25.324Z,1.00
2023-01-02T13:19:12.506Z,1.00
2023-01-02T13:22:05.010Z,1.00
2023-01-02T13:24:31.965Z,1.00
2023-01-02T13:26:59.416Z,1.00
2023-01-02T13:29:42.346Z,1.00
2023-01-02T13:32:11.965Z,1.00
2023-01-02T13:35:00.875Z,1.00
2023-01-02T13:37:29.977Z,1.00
2023-01-02T13:40:04.196Z,1.00
2023-01-02T13:42:53.728Z,1.00
2023-01-02T13:45:31.031Z,1.00
2023-01-02T13:48:04.145Z,1.00
2023-01-02T13:50:36.614Z,1.00
2023-01-02T13:53:05.294Z,1.00
2023-01-02T13:55:39.984Z,1.00
2023-01-02T13:58:13.217Z,1.00
2023-01-02T14:00:42.632Z,1.00
2023-01-02T14:03:21.923Z,1.00
2023-01-02T14:06:00.912Z,1.00
2023-01-02T14:08:36.705Z,1.00
2023-01-02T14:11:09.226Z,1.00
2023-01-02T14:13:46.126Z,1.00
2023-01-02T14:16:26.635Z,1.00
2023-01-02T14:19:02.530Z,1.00
2023-01-02T14:21:37.953Z,1.00
2023-01-02T14:24:17.405Z,1.00
2023-01-02T14:26:53.222Z,1.00
2023-01-02T14:29:20.888Z,1.00
2023-01-02T14:31:48.139Z,1.00
2023-01-02T14:34:23.895Z,1.00
2023-01-02T14:36:52.274Z,1.00
2023-01-02T14:39:28.613Z,1.00
2023-01-02T14:42:13.797Z,1.00
2023-01-02T14:44:52.289Z,1.00
2023-01-02T14:47:30.121Z,1.00
2023-01-02T14:49:59.640Z,1.00
2023-01-02T14:52:35.395Z,1.00
2023-01-02T14:55:15.745Z,1.00
2023-01-02T14:57:48.473Z,1.00
2023-01-02T15:00:22.750Z,1.00
2023-01-02T15:02:55.101Z,1.00
2023-01-02T15:05:32.134Z,1.00
2023-01-02T15:08:00.320Z,1.00
2023-01-02T15:10:27.386Z,1.00
2023-01-02T15:13:04.655Z,1.00
2023-01-02T15:15:40.708Z,1.00
2023-01-02T15:18:34.664Z,1.00
2023-01-02T15:21:10.105Z,1.00
2023-01-02T15:23:41.942Z,1.00
2023-01-02T15:26:31.920Z,1.00
2023-01-02T15:29:18.653Z,1.00
2023-01-02T15:31:55.766Z,1.00
2023-01-02T15:34:30.911Z,1.00
2023-01-02T15:37:02.816Z,1.40
2023-01-02T15:39:39.430Z,1.00
2023-01-02T15:42:29.932Z,2.40
2023-01-02T15:45:10.112Z,2.00
2023-01-02T15:47:47.757Z,2.40
2023-01-02T15:50:26.178Z,2.50
2023-01-02T15:53:02.807Z,3.20
2023-01-02T15:55:39.101Z,3.40
2023-01-02T15:58:14.879Z,4.30
2023-01-02T16:00:43.264Z,3.90
2023-01-02T16:03:12.104Z,4.30
2023-01-02T16:05:49.582Z,5.00
2023-01-02T16:08:19.551Z,5.30
2023-01-02T16:10:51.211Z,5.60
2023-01-02T16:13:42.051Z,6.00
2023-01-02T16:16:16.781Z,6.10
2023-01-02T16:18:47.992Z,6.40
2023-01-02T16:21:16.227Z,7.00
2023-01-02T16:23:54.850Z,7.00
2023-01-02T16:26:28.571Z,7.10
2023-01-02T16:28:55.869Z,7.30
2023-01-02T16:31:23.780Z,7.40
2023-01-02T16:33:51.011Z,7.80
2023-01-02T16:36:17.676Z,7.90
2023-01-02T16:38:59.440Z,8.10
2023-01-02T16:41:33.795Z,8.70
2023-01-02T16:44:01.743Z,9.00
2023-01-02T16:46:29.902Z,9.20
2023-01-02T16:49:04.752Z,9.30
2023-01-02T16:51:32.668Z,10.20
2023-01-02T16:53:59.613Z,10.70
2023-01-02T16:56:26.333Z,9.80
2023-01-02T16:58:53.223Z,9.90
2023-01-02T17:01:22.712Z,10.10
2023-01-02T17:03:49.606Z,10.30
2023-01-02T17:06:19.026Z,10.50
2023-01-02T17:08:45.880Z,10.80
2023-01-02T17:11:16.838Z,11.00
2023-01-02T17:13:43.634Z,11.10
2023-01-02T17:16:10.548Z,12.10
2023-01-02T17:18:37.497Z,11.60
2023-01-02T17:21:04.527Z,11.90
2023-01-02T17:23:31.420Z,12.10
2023-01-02T17:25:58.285Z,12.30
2023-01-02T17:28:25.097Z,12.40
2023-01-02T17:30:51.924Z,12.60
2023-01-02T17:33:19.720Z,12.80
2023-01-02T17:35:50.629Z,13.00
2023-01-02T17:38:17.916Z,13.10
2023-01-02T17:40:45.003Z,13.30
2023-01-02T17:43:12.045Z,13.60
2023-01-02T17:45:40.842Z,14.00
2023-01-02T17:48:11.572Z,14.30
2023-01-02T17:50:40.143Z,14.40
2023-01-02T17:53:07.682Z,14.70
2023-01-02T17:55:35.699Z,14.90
2023-01-02T17:58:03.602Z,15.20
2023-01-02T18:00:30.534Z,15.50
2023-01-02T18:02:57.498Z,15.80
2023-01-02T18:05:24.318Z,16.00
2023-01-02T18:07:52.199Z,16.50
2023-01-02T18:10:21.084Z,16.70
2023-01-02T18:12:49.984Z,16.90
2023-01-02T18:15:19.857Z,17.20
2023-01-02T18:17:47.541Z,17.60
2023-01-02T18:20:21.643Z,17.70
2023-01-02T18:22:50.791Z,18.00
2023-01-02T18:25:27.055Z,18.20
2023-01-02T18:28:02.599Z,18.30
2023-01-02T18:30:29.527Z,18.40
2023-01-02T18:33:18.555Z,18.90
2023-01-02T18:35:59.205Z,18.60
2023-01-02T18:38:39.666Z,19.10
2023-01-02T18:41:33.884Z,19.20
2023-01-02T18:44:06.816Z,18.90
2023-01-02T18:47:02.143Z,19.50
2023-01-02T18:49:29.292Z,19.40
2023-01-02T18:52:11.485Z,19.40
2023-01-02T18:54:45.601Z,18.90
2023-01-02T18:57:18.605Z,19.40
2023-01-02T18:59:50.976Z,19.50
2023-01-02T19:02:46.057Z,19.60
2023-01-02T19:05:24.962Z,19.10
2023-01-02T19:07:54.009Z,19.40
2023-01-02T19:10:36.335Z,19.80
2023-01-02T19:13:07.998Z,19.60
2023-01-02T19:15:41.022Z,19.80
2023-01-02T19:18:25.923Z,20.00
2023-01-02T19:21:06.423Z,20.20
2023-01-02T19:23:45.905Z,20.70
2023-01-02T19:26:18.851Z,26.10
2023-01-02T19:28:58.559Z,29.60
2023-01-02T19:31:28.880Z,30.80
2023-01-02T19:33:59.174Z,32.70
2023-01-02T19:36:39.870Z,35.40
2023-01-02T19:39:26.329Z,36.60
2023-01-02T19:42:12.171Z,35.60
2023-01-02T19:44:39.013Z,35.40
2023-01-02T19:47:06.165Z,35.10
2023-01-02T19:49:32.881Z,34.10
2023-01-02T19:51:59.653Z,34.70
2023-01-02T19:54:26.558Z,35.10
2023-01-02T19:56:53.309Z,34.50
2023-01-02T19:59:20.001Z,34.00
2023-01-02T20:01:46.916Z,33.60
2023-01-02T20:04:13.718Z,33.30
2023-01-02T20:06:40.541Z,34.00
2023-01-02T20:09:08.020Z,33.20
2023-01-02T20:11:53.524Z,33.10
2023-01-02T20:14:20.309Z,32.20
2023-01-02T20:16:47.190Z,31.70
2023-01-02T20:19:13.961Z,30.20
2023-01-02T20:21:40.689Z,29.40
2023-01-02T20:24:07.544Z,28.50
2023-01-02T20:26:34.409Z,27.80
2023-01-02T20:29:01.109Z,26.90
2023-01-02T20:31:28.189Z,26.20
2023-01-02T20:33:55.722Z,25.50
2023-01-02T20:36:22.705Z,24.90
2023-01-02T20:38:49.503Z,24.50
2023-01-02T20:41:16.274Z,24.20
2023-01-02T20:43:43.066Z,24.00
2023-01-02T20:46:09.878Z,23.90
2023-01-02T20:48:36.621Z,23.60
2023-01-02T20:51:03.541Z,23.40
2023-01-02T20:53:30.287Z,23.40
2023-01-02T20:55:57.198Z,24.00
2023-01-02T20:58:24.090Z,24.10
2023-01-02T21:00:50.819Z,24.30
2023-01-02T21:03:17.761Z,23.70
2023-01-02T21:05:44.698Z,23.40
2023-01-02T21:08:11.594Z,23.40
2023-01-02T21:10:38.451Z,24.20
2023-01-02T21:13:08.009Z,24.50
2023-01-02T21:15:51.785Z,24.30
2023-01-02T21:18:19.880Z,24.00
2023-01-02T21:20:49.423Z,23.60
2023-01-02T21:23:17.034Z,23.30
2023-01-02T21:25:44.352Z,23.00
2023-01-02T21:28:12.484Z,23.10
2023-01-02T21:30:41.259Z,23.40
2023-01-02T21:33:08.196Z,24.00
2023-01-02T21:35:35.836Z,24.10
2023-01-02T21:38:02.948Z,24.20
2023-01-02T21:40:29.766Z,24.90
2023-01-02T21:42:56.766Z,25.50
2023-01-02T21:45:23.793Z,26.10
2023-01-02T21:47:50.567Z,26.40
2023-01-02T21:50:18.253Z,26.30
2023-01-02T21:52:45.071Z,26.00
2023-01-02T21:55:17.379Z,26.00
2023-01-02T21:58:12.306Z,26.10
2023-01-02T22:00:32.167Z,26.30
2023-01-02T22:02:58.928Z,26.40
2023-01-02T22:05:25.780Z,26.80
2023-01-02T22:07:52.507Z,26.40
2023-01-02T22:10:19.375Z,26.30
2023-01-02T22:12:46.113Z,26.40
2023-01-02T22:15:13.419Z,26.10
2023-01-02T22:17:40.872Z,25.80
2023-01-02T22:20:08.407Z,25.70
2023-01-02T22:22:35.350Z,25.70
2023-01-02T22:25:02.198Z,26.20
2023-01-02T22:27:29.356Z,26.10
2023-01-02T22:32:47.127Z,26.00
2023-01-02T22:35:14.055Z,26.10
2023-01-02T22:37:40.800Z,26.40
2023-01-02T22:40:07.978Z,26.30
2023-01-02T22:43:04.904Z,26.10
2023-01-02T22:45:47.922Z,25.50
2023-01-02T22:48:29.423Z,25.50
2023-01-02T22:50:58.335Z,24.90
2023-01-02T22:53:29.245Z,24.70
2023-01-02T22:55:56.377Z,24.30
2023-01-02T22:58:23.866Z,24.30
2023-01-02T23:00:58.881Z,23.70
2023-01-02T23:03:29.401Z,23.60
2023-01-02T23:05:56.472Z,23.50
2023-01-02T23:08:23.214Z,23.30
2023-01-02T23:10:50.055Z,23.10
2023-01-02T23:13:16.797Z,23.30
2023-01-02T23:16:03.570Z,23.40
2023-01-02T23:18:54.641Z,23.40
2023-01-02T23:21:24.805Z,24.00
2023-01-02T23:23:52.230Z,24.60
2023-01-02T23:26:19.676Z,24.80
2023-01-02T23:31:35.648Z,25.70
2023-01-02T23:34:02.514Z,27.00
2023-01-02T23:36:29.463Z,29.50
2023-01-02T23:38:56.311Z,30.90
2023-01-02T23:41:23.035Z,31.40
2023-01-02T23:43:51.358Z,31.00
2023-01-02T23:46:18.379Z,30.00
2023-01-02T23:48:45.402Z,29.00
2023-01-02T23:51:12.178Z,28.10
2023-01-02T23:53:38.861Z,27.50
2023-01-02T23:56:22.985Z,27.20
2023-01-02T23:58:51.857Z,27.60
